sensor_id;sensor_type;location;lat;lon;timestamp;P1;durP1;ratioP1;P2;durP2;ratioP2
22774;SDS011;11554;51.106;3.684;2023-07-09T00:00:00;23.00;;;17.90;;
22774;SDS011;11554;51.106;3.684;2023-07-09T00:05:00;23.00;;;17.90;;
22774;SDS011;11554;51.106;3.684;2023-07-09T00:10:00;19.50;;;15.40;;
22774;SDS011;11554;51.106;3.684;2023-07-09T00:15:00;19.50;;;15.40;;
22774;SDS011;11554;51.106;3.684;2023-07-09T00:20:01;26.40;;;21.10;;
22774;SDS011;11554;51.106;3.684;2023-07-09T00:25:00;26.40;;;21.10;;
22774;SDS011;11554;51.106;3.684;2023-07-09T00:30:00;29.90;;;23.20;;
22774;SDS011;11554;51.106;3.684;2023-07-09T00:35:00;29.90;;;23.20;;
22774;SDS011;11554;51.106;3.684;2023-07-09T00:40:00;32.10;;;27.50;;
22774;SDS011;11554;51.106;3.684;2023-07-09T00:45:00;32.10;;;27.50;;
22774;SDS011;11554;51.106;3.684;2023-07-09T00:50:08;38.00;;;31.10;;
22774;SDS011;11554;51.106;3.684;2023-07-09T00:55:04;38.00;;;31.10;;
22774;SDS011;11554;51.106;3.684;2023-07-09T01:00:04;42.10;;;35.40;;
22774;SDS011;11554;51.106;3.684;2023-07-09T01:05:01;42.10;;;35.40;;
22774;SDS011;11554;51.106;3.684;2023-07-09T01:10:00;48.00;;;41.50;;
22774;SDS011;11554;51.106;3.684;2023-07-09T01:15:00;48.00;;;41.50;;
22774;SDS011;11554;51.106;3.684;2023-07-09T01:20:00;55.30;;;49.50;;
22774;SDS011;11554;51.106;3.684;2023-07-09T01:25:03;55.30;;;49.50;;
22774;SDS011;11554;51.106;3.684;2023-07-09T01:30:03;60.80;;;53.80;;
22774;SDS011;11554;51.106;3.684;2023-07-09T01:35:04;60.80;;;53.80;;
22774;SDS011;11554;51.106;3.684;2023-07-09T01:40:00;59.90;;;53.50;;
22774;SDS011;11554;51.106;3.684;2023-07-09T01:45:00;59.90;;;53.50;;
22774;SDS011;11554;51.106;3.684;2023-07-09T01:50:00;71.30;;;63.70;;
22774;SDS011;11554;51.106;3.684;2023-07-09T01:55:00;71.30;;;63.70;;
22774;SDS011;11554;51.106;3.684;2023-07-09T02:00:03;69.30;;;61.10;;
22774;SDS011;11554;51.106;3.684;2023-07-09T02:05:00;69.30;;;61.10;;
22774;SDS011;11554;51.106;3.684;2023-07-09T02:10:00;71.00;;;63.60;;
22774;SDS011;11554;51.106;3.684;2023-07-09T02:15:00;71.00;;;63.60;;
22774;SDS011;11554;51.106;3.684;2023-07-09T02:20:00;76.00;;;67.90;;
22774;SDS011;11554;51.106;3.684;2023-07-09T02:25:00;76.00;;;67.90;;
22774;SDS011;11554;51.106;3.684;2023-07-09T02:30:00;84.00;;;74.90;;
22774;SDS011;11554;51.106;3.684;2023-07-09T02:35:00;84.00;;;74.90;;
22774;SDS011;11554;51.106;3.684;2023-07-09T02:40:00;90.30;;;80.60;;
22774;SDS011;11554;51.106;3.684;2023-07-09T02:45:00;90.30;;;80.60;;
22774;SDS011;11554;51.106;3.684;2023-07-09T02:50:00;94.20;;;84.10;;
22774;SDS011;11554;51.106;3.684;2023-07-09T02:55:00;94.20;;;84.10;;
22774;SDS011;11554;51.106;3.684;2023-07-09T03:00:00;82.90;;;74.10;;
22774;SDS011;11554;51.106;3.684;2023-07-09T03:05:00;82.90;;;74.10;;
22774;SDS011;11554;51.106;3.684;2023-07-09T03:10:00;79.30;;;70.80;;
22774;SDS011;11554;51.106;3.684;2023-07-09T03:15:00;79.30;;;70.80;;
22774;SDS011;11554;51.106;3.684;2023-07-09T03:20:00;68.90;;;61.60;;
22774;SDS011;11554;51.106;3.684;2023-07-09T03:25:00;68.90;;;61.60;;
22774;SDS011;11554;51.106;3.684;2023-07-09T03:30:00;86.20;;;77.00;;
22774;SDS011;11554;51.106;3.684;2023-07-09T03:35:00;86.20;;;77.00;;
22774;SDS011;11554;51.106;3.684;2023-07-09T03:40:00;100.50;;;90.00;;
22774;SDS011;11554;51.106;3.684;2023-07-09T03:45:00;100.50;;;90.00;;
22774;SDS011;11554;51.106;3.684;2023-07-09T03:50:00;92.40;;;82.50;;
22774;SDS011;11554;51.106;3.684;2023-07-09T03:55:01;92.40;;;82.50;;
22774;SDS011;11554;51.106;3.684;2023-07-09T04:00:01;92.50;;;82.40;;
22774;SDS011;11554;51.106;3.684;2023-07-09T04:05:00;92.50;;;82.40;;
22774;SDS011;11554;51.106;3.684;2023-07-09T04:10:00;98.40;;;87.90;;
22774;SDS011;11554;51.106;3.684;2023-07-09T04:15:00;98.40;;;87.90;;
22774;SDS011;11554;51.106;3.684;2023-07-09T04:20:00;101.60;;;90.90;;
22774;SDS011;11554;51.106;3.684;2023-07-09T04:25:00;101.60;;;90.90;;
22774;SDS011;11554;51.106;3.684;2023-07-09T04:30:00;109.00;;;97.10;;
22774;SDS011;11554;51.106;3.684;2023-07-09T04:35:00;109.00;;;97.10;;
22774;SDS011;11554;51.106;3.684;2023-07-09T04:40:00;105.90;;;93.40;;
22774;SDS011;11554;51.106;3.684;2023-07-09T04:45:00;105.90;;;93.40;;
22774;SDS011;11554;51.106;3.684;2023-07-09T04:50:01;102.80;;;89.30;;
22774;SDS011;11554;51.106;3.684;2023-07-09T04:55:00;102.80;;;89.30;;
22774;SDS011;11554;51.106;3.684;2023-07-09T05:00:00;98.10;;;87.20;;
22774;SDS011;11554;51.106;3.684;2023-07-09T05:05:00;98.10;;;87.20;;
22774;SDS011;11554;51.106;3.684;2023-07-09T05:10:00;96.40;;;82.10;;
22774;SDS011;11554;51.106;3.684;2023-07-09T05:15:00;96.40;;;82.10;;
22774;SDS011;11554;51.106;3.684;2023-07-09T05:20:00;91.60;;;78.60;;
22774;SDS011;11554;51.106;3.684;2023-07-09T05:25:00;91.60;;;78.60;;
22774;SDS011;11554;51.106;3.684;2023-07-09T05:30:00;86.30;;;73.90;;
22774;SDS011;11554;51.106;3.684;2023-07-09T05:35:00;86.30;;;73.90;;
22774;SDS011;11554;51.106;3.684;2023-07-09T05:40:00;76.10;;;65.70;;
22774;SDS011;11554;51.106;3.684;2023-07-09T05:45:00;76.10;;;65.70;;
22774;SDS011;11554;51.106;3.684;2023-07-09T05:50:00;54.90;;;46.20;;
22774;SDS011;11554;51.106;3.684;2023-07-09T05:55:00;54.90;;;46.20;;
22774;SDS011;11554;51.106;3.684;2023-07-09T06:00:00;39.60;;;32.90;;
22774;SDS011;11554;51.106;3.684;2023-07-09T06:05:00;39.60;;;32.90;;
22774;SDS011;11554;51.106;3.684;2023-07-09T06:10:00;33.80;;;27.80;;
22774;SDS011;11554;51.106;3.684;2023-07-09T06:15:00;33.80;;;27.80;;
22774;SDS011;11554;51.106;3.684;2023-07-09T06:20:00;26.70;;;20.80;;
22774;SDS011;11554;51.106;3.684;2023-07-09T06:25:00;26.70;;;20.80;;
22774;SDS011;11554;51.106;3.684;2023-07-09T06:30:00;18.40;;;14.30;;
22774;SDS011;11554;51.106;3.684;2023-07-09T06:35:00;18.40;;;14.30;;
22774;SDS011;11554;51.106;3.684;2023-07-09T06:40:00;17.90;;;13.30;;
22774;SDS011;11554;51.106;3.684;2023-07-09T06:45:00;17.90;;;13.30;;
22774;SDS011;11554;51.106;3.684;2023-07-09T06:50:00;17.00;;;13.60;;
22774;SDS011;11554;51.106;3.684;2023-07-09T06:55:00;17.00;;;13.60;;
22774;SDS011;11554;51.106;3.684;2023-07-09T07:00:00;19.10;;;15.20;;
22774;SDS011;11554;51.106;3.684;2023-07-09T07:05:00;19.10;;;15.20;;
22774;SDS011;11554;51.106;3.684;2023-07-09T07:10:00;15.90;;;12.70;;
22774;SDS011;11554;51.106;3.684;2023-07-09T07:15:00;15.90;;;12.70;;
22774;SDS011;11554;51.106;3.684;2023-07-09T07:20:00;14.00;;;11.00;;
22774;SDS011;11554;51.106;3.684;2023-07-09T07:25:00;14.00;;;11.00;;
22774;SDS011;11554;51.106;3.684;2023-07-09T07:30:00;14.30;;;9.60;;
22774;SDS011;11554;51.106;3.684;2023-07-09T07:35:00;14.30;;;9.60;;
22774;SDS011;11554;51.106;3.684;2023-07-09T07:40:00;11.80;;;6.20;;
22774;SDS011;11554;51.106;3.684;2023-07-09T07:45:00;11.80;;;6.20;;
22774;SDS011;11554;51.106;3.684;2023-07-09T07:50:00;10.50;;;5.90;;
22774;SDS011;11554;51.106;3.684;2023-07-09T07:55:00;10.50;;;5.90;;
22774;SDS011;11554;51.106;3.684;2023-07-09T08:00:00;9.90;;;5.20;;
22774;SDS011;11554;51.106;3.684;2023-07-09T08:05:00;9.90;;;5.20;;
22774;SDS011;11554;51.106;3.684;2023-07-09T08:10:00;7.10;;;4.80;;
22774;SDS011;11554;51.106;3.684;2023-07-09T08:15:00;7.10;;;4.80;;
22774;SDS011;11554;51.106;3.684;2023-07-09T08:20:00;7.70;;;4.40;;
22774;SDS011;11554;51.106;3.684;2023-07-09T08:25:00;7.70;;;4.40;;
22774;SDS011;11554;51.106;3.684;2023-07-09T08:30:00;8.10;;;5.40;;
22774;SDS011;11554;51.106;3.684;2023-07-09T08:35:00;8.10;;;5.40;;
22774;SDS011;11554;51.106;3.684;2023-07-09T08:40:00;8.00;;;4.50;;
22774;SDS011;11554;51.106;3.684;2023-07-09T08:45:15;8.00;;;4.50;;
22774;SDS011;11554;51.106;3.684;2023-07-09T08:50:03;8.50;;;4.30;;
22774;SDS011;11554;51.106;3.684;2023-07-09T08:55:05;8.50;;;4.30;;
22774;SDS011;11554;51.106;3.684;2023-07-09T09:00:04;8.60;;;4.80;;
22774;SDS011;11554;51.106;3.684;2023-07-09T09:05:02;8.60;;;4.80;;
22774;SDS011;11554;51.106;3.684;2023-07-09T09:10:02;7.40;;;4.50;;
22774;SDS011;11554;51.106;3.684;2023-07-09T09:15:04;7.40;;;4.50;;
22774;SDS011;11554;51.106;3.684;2023-07-09T09:20:03;6.70;;;3.80;;
22774;SDS011;11554;51.106;3.684;2023-07-09T09:25:04;6.70;;;3.80;;
22774;SDS011;11554;51.106;3.684;2023-07-09T09:30:00;7.50;;;3.70;;
22774;SDS011;11554;51.106;3.684;2023-07-09T09:35:11;7.50;;;3.70;;
22774;SDS011;11554;51.106;3.684;2023-07-09T09:40:00;7.00;;;3.50;;
22774;SDS011;11554;51.106;3.684;2023-07-09T09:45:01;7.00;;;3.50;;
22774;SDS011;11554;51.106;3.684;2023-07-09T09:50:00;5.90;;;3.60;;
22774;SDS011;11554;51.106;3.684;2023-07-09T09:55:03;5.90;;;3.60;;
22774;SDS011;11554;51.106;3.684;2023-07-09T10:00:00;6.00;;;3.00;;
22774;SDS011;11554;51.106;3.684;2023-07-09T10:05:00;6.00;;;3.00;;
22774;SDS011;11554;51.106;3.684;2023-07-09T10:10:02;5.80;;;3.10;;
22774;SDS011;11554;51.106;3.684;2023-07-09T10:15:03;5.80;;;3.10;;
22774;SDS011;11554;51.106;3.684;2023-07-09T10:20:07;7.30;;;3.40;;
22774;SDS011;11554;51.106;3.684;2023-07-09T10:25:04;7.30;;;3.40;;
22774;SDS011;11554;51.106;3.684;2023-07-09T10:30:21;7.50;;;3.60;;
22774;SDS011;11554;51.106;3.684;2023-07-09T10:35:04;7.50;;;3.60;;
22774;SDS011;11554;51.106;3.684;2023-07-09T10:40:02;8.60;;;3.30;;
22774;SDS011;11554;51.106;3.684;2023-07-09T10:45:03;8.60;;;3.30;;
22774;SDS011;11554;51.106;3.684;2023-07-09T10:50:02;7.10;;;3.40;;
22774;SDS011;11554;51.106;3.684;2023-07-09T10:55:04;7.10;;;3.40;;
22774;SDS011;11554;51.106;3.684;2023-07-09T11:00:01;7.10;;;3.40;;
22774;SDS011;11554;51.106;3.684;2023-07-09T11:05:02;8.70;;;3.70;;
22774;SDS011;11554;51.106;3.684;2023-07-09T11:10:02;8.70;;;3.70;;
22774;SDS011;11554;51.106;3.684;2023-07-09T11:15:03;9.10;;;5.20;;
22774;SDS011;11554;51.106;3.684;2023-07-09T11:20:07;12.80;;;8.10;;
22774;SDS011;11554;51.106;3.684;2023-07-09T11:25:07;12.80;;;8.10;;
22774;SDS011;11554;51.106;3.684;2023-07-09T11:30:03;12.80;;;8.10;;
22774;SDS011;11554;51.106;3.684;2023-07-09T11:35:08;17.40;;;11.20;;
22774;SDS011;11554;51.106;3.684;2023-07-09T11:40:06;17.40;;;11.20;;
22774;SDS011;11554;51.106;3.684;2023-07-09T11:45:09;16.70;;;11.00;;
22774;SDS011;11554;51.106;3.684;2023-07-09T11:50:02;16.70;;;11.00;;
22774;SDS011;11554;51.106;3.684;2023-07-09T11:55:05;17.20;;;12.10;;
22774;SDS011;11554;51.106;3.684;2023-07-09T12:00:00;17.20;;;12.10;;
22774;SDS011;11554;51.106;3.684;2023-07-09T12:05:02;18.80;;;10.70;;
22774;SDS011;11554;51.106;3.684;2023-07-09T12:10:03;18.80;;;10.70;;
22774;SDS011;11554;51.106;3.684;2023-07-09T12:15:04;16.80;;;10.00;;
22774;SDS011;11554;51.106;3.684;2023-07-09T12:20:00;16.80;;;10.00;;
22774;SDS011;11554;51.106;3.684;2023-07-09T12:25:00;11.90;;;7.30;;
22774;SDS011;11554;51.106;3.684;2023-07-09T12:30:00;11.90;;;7.30;;
22774;SDS011;11554;51.106;3.684;2023-07-09T12:35:00;10.70;;;6.60;;
22774;SDS011;11554;51.106;3.684;2023-07-09T12:40:00;10.70;;;6.60;;
22774;SDS011;11554;51.106;3.684;2023-07-09T12:45:00;8.80;;;5.60;;
22774;SDS011;11554;51.106;3.684;2023-07-09T12:50:02;8.80;;;5.60;;
22774;SDS011;11554;51.106;3.684;2023-07-09T12:55:02;8.70;;;5.00;;
22774;SDS011;11554;51.106;3.684;2023-07-09T13:00:00;8.70;;;5.00;;
22774;SDS011;11554;51.106;3.684;2023-07-09T13:05:02;9.50;;;5.70;;
22774;SDS011;11554;51.106;3.684;2023-07-09T13:10:06;9.50;;;5.70;;
22774;SDS011;11554;51.106;3.684;2023-07-09T13:15:00;9.90;;;7.60;;
22774;SDS011;11554;51.106;3.684;2023-07-09T13:20:00;9.90;;;7.60;;
22774;SDS011;11554;51.106;3.684;2023-07-09T13:25:00;13.70;;;7.60;;
22774;SDS011;11554;51.106;3.684;2023-07-09T13:30:00;13.70;;;7.60;;
22774;SDS011;11554;51.106;3.684;2023-07-09T13:35:00;12.00;;;6.80;;
22774;SDS011;11554;51.106;3.684;2023-07-09T13:40:00;12.00;;;6.80;;
22774;SDS011;11554;51.106;3.684;2023-07-09T13:45:00;12.70;;;7.90;;
22774;SDS011;11554;51.106;3.684;2023-07-09T13:50:00;12.70;;;7.90;;
22774;SDS011;11554;51.106;3.684;2023-07-09T13:55:00;10.20;;;6.90;;
22774;SDS011;11554;51.106;3.684;2023-07-09T14:00:00;10.20;;;6.90;;
22774;SDS011;11554;51.106;3.684;2023-07-09T14:05:03;10.00;;;6.50;;
22774;SDS011;11554;51.106;3.684;2023-07-09T14:10:02;10.00;;;6.50;;
22774;SDS011;11554;51.106;3.684;2023-07-09T14:15:02;11.00;;;6.10;;
22774;SDS011;11554;51.106;3.684;2023-07-09T14:20:00;11.00;;;6.10;;
22774;SDS011;11554;51.106;3.684;2023-07-09T14:25:01;9.40;;;6.30;;
22774;SDS011;11554;51.106;3.684;2023-07-09T14:30:00;9.40;;;6.30;;
22774;SDS011;11554;51.106;3.684;2023-07-09T14:35:01;9.70;;;5.90;;
22774;SDS011;11554;51.106;3.684;2023-07-09T14:40:00;9.70;;;5.90;;
22774;SDS011;11554;51.106;3.684;2023-07-09T14:45:00;9.50;;;5.80;;
22774;SDS011;11554;51.106;3.684;2023-07-09T14:50:00;9.50;;;5.80;;
22774;SDS011;11554;51.106;3.684;2023-07-09T14:55:00;8.50;;;5.50;;
22774;SDS011;11554;51.106;3.684;2023-07-09T15:00:00;8.50;;;5.50;;
22774;SDS011;11554;51.106;3.684;2023-07-09T15:05:01;5.70;;;3.10;;
22774;SDS011;11554;51.106;3.684;2023-07-09T15:10:00;5.70;;;3.10;;
22774;SDS011;11554;51.106;3.684;2023-07-09T15:15:06;4.30;;;2.50;;
22774;SDS011;11554;51.106;3.684;2023-07-09T15:20:00;4.30;;;2.50;;
22774;SDS011;11554;51.106;3.684;2023-07-09T15:25:00;4.50;;;2.40;;
22774;SDS011;11554;51.106;3.684;2023-07-09T15:30:00;4.50;;;2.40;;
22774;SDS011;11554;51.106;3.684;2023-07-09T15:35:00;5.80;;;2.20;;
22774;SDS011;11554;51.106;3.684;2023-07-09T15:40:00;5.80;;;2.20;;
22774;SDS011;11554;51.106;3.684;2023-07-09T15:45:00;5.10;;;2.10;;
22774;SDS011;11554;51.106;3.684;2023-07-09T15:50:00;5.10;;;2.10;;
22774;SDS011;11554;51.106;3.684;2023-07-09T15:55:00;6.50;;;2.40;;
22774;SDS011;11554;51.106;3.684;2023-07-09T16:00:00;6.50;;;2.40;;
22774;SDS011;11554;51.106;3.684;2023-07-09T16:05:00;7.50;;;2.30;;
22774;SDS011;11554;51.106;3.684;2023-07-09T16:10:00;7.50;;;2.30;;
22774;SDS011;11554;51.106;3.684;2023-07-09T16:15:00;3.70;;;1.40;;
22774;SDS011;11554;51.106;3.684;2023-07-09T16:20:00;3.70;;;1.40;;
22774;SDS011;11554;51.106;3.684;2023-07-09T16:25:00;3.40;;;1.40;;
22774;SDS011;11554;51.106;3.684;2023-07-09T16:30:00;3.40;;;1.40;;
22774;SDS011;11554;51.106;3.684;2023-07-09T16:35:00;5.10;;;1.70;;
22774;SDS011;11554;51.106;3.684;2023-07-09T16:40:00;5.10;;;1.70;;
22774;SDS011;11554;51.106;3.684;2023-07-09T16:45:00;4.30;;;1.70;;
22774;SDS011;11554;51.106;3.684;2023-07-09T16:50:00;4.30;;;1.70;;
22774;SDS011;11554;51.106;3.684;2023-07-09T16:55:00;4.40;;;1.40;;
22774;SDS011;11554;51.106;3.684;2023-07-09T17:05:02;4.20;;;1.60;;
22774;SDS011;11554;51.106;3.684;2023-07-09T17:10:00;4.20;;;1.60;;
22774;SDS011;11554;51.106;3.684;2023-07-09T17:15:06;7.00;;;1.90;;
22774;SDS011;11554;51.106;3.684;2023-07-09T17:20:00;7.00;;;1.90;;
22774;SDS011;11554;51.106;3.684;2023-07-09T17:25:03;4.50;;;1.80;;
22774;SDS011;11554;51.106;3.684;2023-07-09T17:30:00;4.50;;;1.80;;
22774;SDS011;11554;51.106;3.684;2023-07-09T17:35:00;5.80;;;1.80;;
22774;SDS011;11554;51.106;3.684;2023-07-09T17:40:00;5.80;;;1.80;;
22774;SDS011;11554;51.106;3.684;2023-07-09T17:45:00;4.70;;;1.30;;
22774;SDS011;11554;51.106;3.684;2023-07-09T17:50:00;4.70;;;1.30;;
22774;SDS011;11554;51.106;3.684;2023-07-09T17:55:00;3.40;;;1.20;;
22774;SDS011;11554;51.106;3.684;2023-07-09T18:00:00;3.40;;;1.20;;
22774;SDS011;11554;51.106;3.684;2023-07-09T18:05:00;4.50;;;1.20;;
22774;SDS011;11554;51.106;3.684;2023-07-09T18:10:00;4.50;;;1.20;;
22774;SDS011;11554;51.106;3.684;2023-07-09T18:15:00;4.10;;;1.20;;
22774;SDS011;11554;51.106;3.684;2023-07-09T18:20:02;4.10;;;1.20;;
22774;SDS011;11554;51.106;3.684;2023-07-09T18:25:00;4.80;;;1.40;;
22774;SDS011;11554;51.106;3.684;2023-07-09T18:30:00;4.80;;;1.40;;
22774;SDS011;11554;51.106;3.684;2023-07-09T18:35:15;3.70;;;1.20;;
22774;SDS011;11554;51.106;3.684;2023-07-09T18:40:00;3.70;;;1.20;;
22774;SDS011;11554;51.106;3.684;2023-07-09T18:45:00;3.50;;;1.20;;
22774;SDS011;11554;51.106;3.684;2023-07-09T18:50:00;3.50;;;1.20;;
22774;SDS011;11554;51.106;3.684;2023-07-09T18:55:00;4.60;;;1.40;;
22774;SDS011;11554;51.106;3.684;2023-07-09T19:00:00;4.60;;;1.40;;
22774;SDS011;11554;51.106;3.684;2023-07-09T19:05:00;3.30;;;1.10;;
22774;SDS011;11554;51.106;3.684;2023-07-09T19:10:00;3.30;;;1.10;;
22774;SDS011;11554;51.106;3.684;2023-07-09T19:15:00;4.70;;;1.40;;
22774;SDS011;11554;51.106;3.684;2023-07-09T19:20:00;4.70;;;1.40;;
22774;SDS011;11554;51.106;3.684;2023-07-09T19:25:00;4.80;;;1.40;;
22774;SDS011;11554;51.106;3.684;2023-07-09T19:30:00;4.80;;;1.40;;
22774;SDS011;11554;51.106;3.684;2023-07-09T19:35:00;5.00;;;1.20;;
22774;SDS011;11554;51.106;3.684;2023-07-09T19:40:00;5.00;;;1.20;;
22774;SDS011;11554;51.106;3.684;2023-07-09T19:45:00;4.60;;;1.30;;
22774;SDS011;11554;51.106;3.684;2023-07-09T19:50:11;4.60;;;1.30;;
22774;SDS011;11554;51.106;3.684;2023-07-09T19:55:06;4.10;;;1.40;;
22774;SDS011;11554;51.106;3.684;2023-07-09T20:00:00;4.10;;;1.40;;
22774;SDS011;11554;51.106;3.684;2023-07-09T20:05:00;4.00;;;1.50;;
22774;SDS011;11554;51.106;3.684;2023-07-09T20:10:00;4.00;;;1.50;;
22774;SDS011;11554;51.106;3.684;2023-07-09T20:15:00;3.40;;;1.30;;
22774;SDS011;11554;51.106;3.684;2023-07-09T20:20:00;3.40;;;1.30;;
22774;SDS011;11554;51.106;3.684;2023-07-09T20:25:00;6.00;;;1.50;;
22774;SDS011;11554;51.106;3.684;2023-07-09T20:30:00;6.00;;;1.50;;
22774;SDS011;11554;51.106;3.684;2023-07-09T20:35:00;4.20;;;1.50;;
22774;SDS011;11554;51.106;3.684;2023-07-09T20:40:00;4.20;;;1.50;;
22774;SDS011;11554;51.106;3.684;2023-07-09T20:45:00;4.90;;;1.70;;
22774;SDS011;11554;51.106;3.684;2023-07-09T20:50:00;4.90;;;1.70;;
22774;SDS011;11554;51.106;3.684;2023-07-09T20:55:00;5.20;;;1.60;;
22774;SDS011;11554;51.106;3.684;2023-07-09T21:00:01;5.20;;;1.60;;
22774;SDS011;11554;51.106;3.684;2023-07-09T21:05:00;5.80;;;2.00;;
22774;SDS011;11554;51.106;3.684;2023-07-09T21:10:00;5.80;;;2.00;;
22774;SDS011;11554;51.106;3.684;2023-07-09T21:15:00;10.30;;;2.80;;
22774;SDS011;11554;51.106;3.684;2023-07-09T21:20:00;10.30;;;2.80;;
22774;SDS011;11554;51.106;3.684;2023-07-09T21:25:14;7.30;;;2.60;;
22774;SDS011;11554;51.106;3.684;2023-07-09T21:30:00;7.30;;;2.60;;
22774;SDS011;11554;51.106;3.684;2023-07-09T21:35:00;8.80;;;2.70;;
22774;SDS011;11554;51.106;3.684;2023-07-09T21:40:00;8.80;;;2.70;;
22774;SDS011;11554;51.106;3.684;2023-07-09T21:45:00;7.60;;;3.10;;
22774;SDS011;11554;51.106;3.684;2023-07-09T21:50:00;7.60;;;3.10;;
22774;SDS011;11554;51.106;3.684;2023-07-09T21:55:00;7.50;;;2.90;;
22774;SDS011;11554;51.106;3.684;2023-07-09T22:00:00;7.50;;;2.90;;
22774;SDS011;11554;51.106;3.684;2023-07-09T22:05:00;7.30;;;2.90;;
22774;SDS011;11554;51.106;3.684;2023-07-09T22:10:00;7.30;;;2.90;;
22774;SDS011;11554;51.106;3.684;2023-07-09T22:15:12;6.80;;;2.90;;
22774;SDS011;11554;51.106;3.684;2023-07-09T22:20:00;6.80;;;2.90;;
22774;SDS011;11554;51.106;3.684;2023-07-09T22:25:00;5.70;;;2.60;;
22774;SDS011;11554;51.106;3.684;2023-07-09T22:30:00;5.70;;;2.60;;
22774;SDS011;11554;51.106;3.684;2023-07-09T22:35:02;8.60;;;3.00;;
22774;SDS011;11554;51.106;3.684;2023-07-09T22:40:12;8.60;;;3.00;;
22774;SDS011;11554;51.106;3.684;2023-07-09T22:45:00;6.80;;;2.60;;
22774;SDS011;11554;51.106;3.684;2023-07-09T22:50:00;6.80;;;2.60;;
22774;SDS011;11554;51.106;3.684;2023-07-09T23:00:00;6.90;;;2.70;;
22774;SDS011;11554;51.106;3.684;2023-07-09T23:05:00;8.00;;;2.60;;
22774;SDS011;11554;51.106;3.684;2023-07-09T23:10:00;8.00;;;2.60;;
22774;SDS011;11554;51.106;3.684;2023-07-09T23:15:00;6.30;;;2.80;;
22774;SDS011;11554;51.106;3.684;2023-07-09T23:20:00;6.30;;;2.80;;
22774;SDS011;11554;51.106;3.684;2023-07-09T23:25:00;7.00;;;2.80;;
22774;SDS011;11554;51.106;3.684;2023-07-09T23:30:00;7.00;;;2.80;;
22774;SDS011;11554;51.106;3.684;2023-07-09T23:35:00;8.00;;;2.80;;
22774;SDS011;11554;51.106;3.684;2023-07-09T23:40:00;8.00;;;2.80;;
22774;SDS011;11554;51.106;3.684;2023-07-09T23:45:01;7.20;;;2.70;;
22774;SDS011;11554;51.106;3.684;2023-07-09T23:50:00;7.20;;;2.70;;
22774;SDS011;11554;51.106;3.684;2023-07-09T23:55:00;5.90;;;3.00;;
